Time;durP1;ratioP1;P1;durP2;ratioP2;P2;SDS_P1;SDS_P2;PMS_P1;PMS_P2;Temp;Humidity;BMP_temperature;BMP_pressure;BME280_temperature;BME280_humidity;BME280_pressure;Samples;Min_cycle;Max_cycle;Signal;HPM_P1;HPM_P2
2022/11/14 00:06:51;;;;;;;158.07;23.95;;;;;;;2.36;84.35;101114.56;30612345;28;96850;-64
2022/11/14 00:21:53;;;;;;;268.90;25.75;;;;;;;2.31;84.33;101127.13;30629407;28;97151;-67
2022/11/14 00:36:53;;;;;;;169.73;24.98;;;;;;;2.33;84.77;101121.78;30627833;28;97128;-64
2022/11/14 00:51:53;;;;;;;82.63;21.63;;;;;;;2.26;84.70;101117.84;30626271;28;96622;-64
2022/11/14 01:06:54;;;;;;;122.78;24.08;;;;;;;2.24;84.76;101098.66;30625729;28;96651;-67
2022/11/14 01:21:54;;;;;;;131.77;26.85;;;;;;;2.27;85.40;101087.94;30623757;28;96684;-66
2022/11/14 01:36:56;;;;;;;115.15;25.20;;;;;;;2.30;85.27;101088.63;30622154;28;97238;-66
2022/11/14 01:52:08;;;;;;;140.30;30.23;;;;;;;2.33;85.51;101056.88;30620657;28;97145;-65
2022/11/14 02:07:10;;;;;;;121.78;32.35;;;;;;;2.39;85.64;101046.91;30619802;28;96786;-64
2022/11/14 02:22:10;;;;;;;130.52;27.58;;;;;;;2.43;85.68;101032.63;30618176;28;97338;-64
2022/11/14 02:37:11;;;;;;;122.13;32.45;;;;;;;2.43;85.28;101020.31;30616002;28;96909;-65
2022/11/14 02:52:11;;;;;;;68.78;29.98;;;;;;;2.40;85.37;101004.72;30615072;28;96632;-64
2022/11/14 03:07:12;;;;;;;67.78;31.30;;;;;;;2.45;85.12;101017.63;30614597;28;96773;-64
2022/11/14 03:22:12;;;;;;;64.53;28.45;;;;;;;2.58;85.79;101020.28;30613098;28;96857;-64
2022/11/14 03:37:13;;;;;;;76.13;28.55;;;;;;;2.74;86.02;101009.63;30610532;28;97233;-64
2022/11/14 03:52:13;;;;;;;62.03;25.60;;;;;;;2.88;86.13;100997.28;30626475;28;97834;-64
2022/11/14 04:07:13;;;;;;;92.63;29.70;;;;;;;3.03;85.77;100998.06;30629111;28;96505;-64
2022/11/14 04:22:14;;;;;;;111.32;30.75;;;;;;;3.18;86.02;101005.84;30627984;28;96766;-64
2022/11/14 04:37:14;;;;;;;60.50;23.98;;;;;;;3.25;86.16;100999.22;30623329;28;96840;-66
2022/11/14 04:52:14;;;;;;;49.38;21.90;;;;;;;3.25;85.73;100962.34;30613677;28;97036;-64
2022/11/14 05:07:15;;;;;;;95.07;32.70;;;;;;;3.31;85.66;100967.22;30620385;28;97309;-62
2022/11/14 05:22:16;;;;;;;69.45;27.73;;;;;;;3.38;85.70;100943.94;30618894;28;96796;-63
2022/11/14 05:37:16;;;;;;;62.72;25.23;;;;;;;3.44;86.16;100935.59;30616028;28;97339;-62
2022/11/14 05:52:16;;;;;;;64.65;25.73;;;;;;;3.46;85.76;100946.03;30615554;28;97067;-64
2022/11/14 06:07:17;;;;;;;78.60;28.63;;;;;;;3.52;86.04;100979.88;30611230;28;97141;-65
2022/11/14 06:22:17;;;;;;;49.25;21.23;;;;;;;3.50;86.13;100989.66;30610168;28;97296;-64
2022/11/14 06:37:18;;;;;;;52.13;22.13;;;;;;;3.44;86.10;100979.56;30609157;28;97257;-62
2022/11/14 06:52:18;;;;;;;54.10;25.38;;;;;;;3.54;86.07;100968.28;30607809;28;96852;-64
2022/11/14 07:07:18;;;;;;;52.10;25.55;;;;;;;3.64;86.05;100960.59;30605410;28;96726;-63
2022/11/14 07:22:19;;;;;;;64.97;29.02;;;;;;;3.76;85.98;100952.78;30604372;28;96950;-63
2022/11/14 07:37:19;;;;;;;65.50;27.67;;;;;;;3.94;86.08;100933.03;30604871;28;97255;-64
2022/11/14 07:52:19;;;;;;;70.88;28.10;;;;;;;4.23;85.88;100930.09;30603058;28;97383;-64
2022/11/14 08:07:20;;;;;;;52.60;24.27;;;;;;;4.34;85.88;100929.31;30603593;28;96726;-64
2022/11/14 08:22:20;;;;;;;46.60;22.65;;;;;;;4.48;85.59;100904.56;30599344;28;97239;-63
2022/11/14 08:37:21;;;;;;;53.47;20.40;;;;;;;4.57;85.00;100901.25;30607094;28;97338;-66
2022/11/14 08:52:21;;;;;;;51.67;24.30;;;;;;;4.74;85.46;100878.88;30620727;28;96720;-67
2022/11/14 09:07:22;;;;;;;60.00;27.52;;;;;;;4.84;85.29;100889.56;30619541;28;96721;-63
2022/11/14 09:22:22;;;;;;;59.05;26.17;;;;;;;5.06;84.85;100865.88;30617604;28;96840;-62
2022/11/14 09:37:22;;;;;;;54.47;27.55;;;;;;;5.40;84.65;100849.22;30613193;28;97009;-62
2022/11/14 09:52:46;;;;;;;53.83;25.45;;;;;;;5.62;84.23;100858.06;30605133;28;97027;-68
2022/11/14 10:08:16;;;;;;;50.87;26.87;;;;;;;5.82;84.34;100859.97;30600596;28;96906;-67
2022/11/14 10:23:20;;;;;;;41.17;23.45;;;;;;;5.95;83.45;100827.25;30602702;28;97101;-69
2022/11/14 10:38:32;;;;;;;45.88;23.48;;;;;;;6.48;82.69;100805.28;30601266;28;98189;-72
2022/11/14 10:53:40;;;;;;;41.58;23.50;;;;;;;6.35;83.66;100803.66;30538223;28;96734;-66
2022/11/14 11:24:01;;;;;;;29.97;18.53;;;;;;;17.83;79.29;100776.31;30596482;28;97168;-66
2022/11/14 11:39:01;;;;;;;23.45;16.33;;;;;;;24.12;56.82;100763.44;30598408;28;97314;-69
2022/11/14 11:54:10;;;;;;;22.05;16.80;;;;;;;27.78;45.88;100744.16;30596233;28;96880;-68
2022/11/14 12:09:28;;;;;;;21.27;16.77;;;;;;;29.51;38.49;100727.59;30606319;28;97244;-67
2022/11/14 12:25:00;;;;;;;18.93;16.03;;;;;;;30.66;31.58;100717.25;30614670;28;97620;-67
2022/11/14 12:40:04;;;;;;;20.73;16.53;;;;;;;28.94;28.74;100707.84;30605900;28;97046;-67
2022/11/14 12:55:25;;;;;;;17.87;15.90;;;;;;;30.57;25.28;100689.59;30610174;28;98926;-67
2022/11/14 13:10:28;;;;;;;21.80;17.90;;;;;;;30.60;24.23;100668.97;30617715;28;97140;-67
2022/11/14 13:25:28;;;;;;;21.43;17.10;;;;;;;30.60;23.77;100660.72;30619360;28;97398;-67
2022/11/14 13:40:39;;;;;;;21.83;18.33;;;;;;;29.22;24.82;100639.66;30605664;28;97818;-67
2022/11/14 13:55:48;;;;;;;20.87;17.00;;;;;;;27.96;26.09;100625.88;30536392;28;97226;-70
2022/11/14 14:11:36;;;;;;;21.83;17.20;;;;;;;25.15;29.34;100616.91;30557296;28;96916;-68
2022/11/14 14:26:55;;;;;;;23.53;18.13;;;;;;;23.20;32.04;100591.34;30559091;28;97576;-68
2022/11/14 14:41:57;;;;;;;28.43;19.27;;;;;;;20.37;36.15;100584.59;30597349;28;97428;-68
2022/11/14 14:56:59;;;;;;;29.93;22.60;;;;;;;15.96;42.11;100584.38;30595649;28;98860;-68
2022/11/14 15:12:00;;;;;;;36.53;20.73;;;;;;;12.96;47.56;100583.69;30588694;28;97157;-69
2022/11/14 15:27:18;;;;;;;30.47;19.37;;;;;;;11.10;51.80;100560.53;30596109;28;97621;-69
2022/11/14 15:42:28;;;;;;;36.63;21.10;;;;;;;9.93;54.83;100554.91;30608146;28;97237;-74
2022/11/14 15:57:30;;;;;;;37.07;23.27;;;;;;;9.20;57.63;100533.91;30619941;28;97366;-65
2022/11/14 16:12:31;;;;;;;42.27;23.97;;;;;;;8.45;59.82;100538.47;30617892;28;97501;-72
2022/11/14 16:27:31;;;;;;;35.97;23.20;;;;;;;7.89;62.45;100531.41;30616674;28;97677;-71
2022/11/14 16:42:32;;;;;;;32.17;21.38;;;;;;;7.54;64.28;100525.75;30613030;28;96805;-70
2022/11/14 16:57:32;;;;;;;56.00;32.08;;;;;;;7.27;66.24;100511.44;30607431;28;97704;-66
2022/11/14 17:12:33;;;;;;;59.75;36.92;;;;;;;6.97;66.94;100525.69;30526947;28;96918;-65
2022/11/14 17:27:33;;;;;;;51.13;25.55;;;;;;;6.70;68.10;100519.22;30601021;28;97129;-66
2022/11/14 17:42:33;;;;;;;41.47;23.05;;;;;;;6.44;68.73;100516.25;30599705;28;97307;-70
2022/11/14 17:57:34;;;;;;;42.67;22.90;;;;;;;6.19;69.61;100506.97;30604706;28;97731;-70
2022/11/14 18:12:34;;;;;;;37.90;21.80;;;;;;;6.11;70.25;100512.94;30605941;28;97441;-67
2022/11/14 18:27:35;;;;;;;38.53;20.98;;;;;;;6.05;70.88;100514.28;30596951;28;96688;-64
2022/11/14 18:42:36;;;;;;;39.22;20.95;;;;;;;5.91;71.72;100490.81;30597936;28;97100;-65
2022/11/14 18:57:36;;;;;;;46.03;24.17;;;;;;;5.75;72.46;100481.59;30601769;28;96890;-65
2022/11/14 19:12:37;;;;;;;48.03;23.30;;;;;;;5.49;73.33;100472.38;30600352;28;96700;-67
2022/11/14 19:27:38;;;;;;;51.15;28.73;;;;;;;5.08;73.48;100477.53;30599029;28;97099;-67
2022/11/14 19:42:39;;;;;;;51.05;27.17;;;;;;;4.90;74.56;100451.69;30597837;28;97402;-70
2022/11/14 19:57:39;;;;;;;48.67;25.50;;;;;;;4.73;74.83;100437.25;30598393;28;96782;-67
2022/11/14 20:12:40;;;;;;;55.47;28.42;;;;;;;4.57;75.51;100434.19;30597701;28;97034;-67
2022/11/14 20:27:40;;;;;;;49.80;27.15;;;;;;;4.62;76.26;100416.19;30605307;28;96764;-66
2022/11/14 20:42:40;;;;;;;53.53;27.63;;;;;;;4.70;77.21;100411.13;30615107;28;97457;-69
2022/11/14 20:57:41;;;;;;;54.90;29.13;;;;;;;4.57;77.61;100415.72;30624071;28;97365;-67
2022/11/14 21:12:41;;;;;;;56.85;30.88;;;;;;;4.44;77.23;100417.69;30623840;28;97011;-68
2022/11/14 21:27:42;;;;;;;58.90;31.17;;;;;;;4.31;78.04;100420.50;30622736;28;96697;-68
2022/11/14 21:42:42;;;;;;;55.53;30.70;;;;;;;4.29;78.17;100417.97;30621008;28;96771;-67
2022/11/14 21:57:42;;;;;;;61.35;30.83;;;;;;;4.05;77.98;100400.53;30620981;28;96764;-67
2022/11/14 22:12:43;;;;;;;71.75;38.78;;;;;;;4.01;78.91;100401.72;30618196;28;97363;-68
2022/11/14 22:27:43;;;;;;;65.75;36.72;;;;;;;3.79;78.76;100399.97;30617771;28;96726;-68
2022/11/14 22:42:44;;;;;;;71.65;35.42;;;;;;;3.77;79.34;100393.13;30615264;28;97320;-68
2022/11/14 22:57:44;;;;;;;64.07;35.28;;;;;;;3.71;79.51;100384.75;30615275;28;96699;-70
2022/11/14 23:12:44;;;;;;;75.85;39.15;;;;;;;3.47;79.73;100384.91;30614522;28;97019;-68
2022/11/14 23:27:46;;;;;;;71.75;35.80;;;;;;;3.50;80.17;100363.56;30613372;28;96654;-69
2022/11/14 23:42:46;;;;;;;65.53;34.83;;;;;;;3.34;80.65;100352.56;30611408;28;97370;-68
2022/11/14 23:57:46;;;;;;;59.60;30.75;;;;;;;3.24;80.58;100335.78;30613380;28;96856;-68
